Aérodrome :
LOGIN :

S'inscrire | Disclaimer

   EN    FR    IT 

 










Légende :    VFR   VFR Marginal   IFR   IFR Intensif   IFR Très Intensif
Visi : 
Plafond : 
>= 8 km
>= 3000ft
5 à 8 km
1000 à 3000 ft
1500m à 5 km
500 à 1000 ft
800 à 1500m
200 à 500 ft
< 800m
< 200 ft
Symboles :   Orages  Brouillard  Fortes neiges  Fortes précipitations  Vent > 20 kt
SIGMETs :   Divers  Orages  Givrage  Turbulence  Onde Orograph.  Cendres Volcan.






- Altitude de l'aérodrome : 218 ft


EGYD - RAF Cranwell

DERNIER METAR :
  • 231011Z 23012KT 9999 FEW012 BKN018 BKN250 12/10 Q1005 NOSIG RMK WHT WHT

METARs EXPIRÉS :
  • 230950Z 24011KT 9999 FEW010 SCT040 BKN120 11/10 Q1005 TEMPO SCT020 RMK BLU TEMPO WHT
  • 230850Z 22008KT 9999 FEW006 BKN010 11/11 Q1005 TEMPO SCT004 RMK GRN TEMPO YLO2
  • 230844Z 22008KT 9999 FEW006 SCT011 BKN040 11/10 Q1005 TEMPO SCT004 RMK GRN TEMPO YLO2
  • 230810Z 17004KT 7000 BR FEW003 SCT030 09/09 Q1005 TEMPO SCT004 RMK WHT TEMPO YLO2
  • 230750Z 14004KT 4000 BR BKN003 BKN030 08/08 Q1005 BECMG 9999 NSW SCT012 RMK YLO2 BECMG GRN
  • 230737Z 13003KT 2500 BR BKN001 BKN030 08/08 Q1005 BECMG 9999 NSW SCT008 BKN030 RMK RED BECMG GRN

TAF TAF EGYD
Valide du 23 à 09h jusqu'au 23 à 17h UTC


230743Z 2309/2317 15005KT 9999 FEW010 BKN030
TEMPO 2309/2310 6000 -RA SCT004 BKN008
BECMG 2309/2311 24014KT
TEMPO 2309/2313 SCT020
TEMPO 2313/2316 6000 -RA SCT012 BKN030
PROB30
TEMPO 2313/2316 22016G26KT



MET'MAP, la Météo Aéronautique d'un coup d'oeil ! - Copyright ORBIFLY Décembre 2007 - Disclaimer

ORBIFLY MET'MAP TEAM :

Programmation & Développement : Alexandra Zaïnal
Sur une idée originale de : Baudouin d'Aumeries
Assistance à la programmation : Marc-Olivier Méhu
Soutien technique & logistique : Manuel Goepfert

Contact : metmap@orbifly.com




SOURCES & CREDITS :

   NOAA